Time;durP1;ratioP1;P1;durP2;ratioP2;P2;SDS_P1;SDS_P2;PMS_P1;PMS_P2;Temp;Humidity;BMP_temperature;BMP_pressure;BME280_temperature;BME280_humidity;BME280_pressure;Samples;Min_cycle;Max_cycle;Signal;HPM_P1;HPM_P2
2022/01/25 01:30:07;;;;;;;18.33;16.30;;;;;;;;;;4972188;28;20718;-65
2022/01/25 01:38:25;;;;;;;19.47;17.20;;;;;;;;;;4938112;28;20288;-66
2022/01/25 01:41:21;;;;;;;18.87;16.93;;;;;;;;;;4958797;28;20903;-65
2022/01/25 01:43:53;;;;;;;19.00;17.10;;;;;;;;;;4968332;28;20177;-65
2022/01/25 01:49:05;;;;;;;20.83;17.77;;;;;;;;;;4965248;28;20729;-65
2022/01/25 01:51:34;;;;;;;21.13;18.37;;;;;;;;;;4967911;28;20591;-65
2022/01/25 01:54:01;;;;;;;19.77;17.70;;;;;;;;;;4970491;28;21841;-65
2022/01/25 01:56:27;;;;;;;21.67;18.27;;;;;;;;;;4964100;28;20209;-65
2022/01/25 01:58:53;;;;;;;20.27;18.10;;;;;;;;;;4973760;28;20198;-65
2022/01/25 02:01:24;;;;;;;20.73;18.53;;;;;;;;;;4964299;28;20228;-64
2022/01/25 02:03:50;;;;;;;21.63;17.20;;;;;;;;;;4947297;28;21190;-63
2022/01/25 02:06:16;;;;;;;18.97;17.07;;;;;;;;;;4946502;28;20209;-63
2022/01/25 02:08:42;;;;;;;22.37;18.13;;;;;;;;;;4964710;28;20223;-63
2022/01/25 02:11:08;;;;;;;21.27;18.17;;;;;;;;;;4941074;28;20899;-63
2022/01/25 02:13:34;;;;;;;20.57;18.40;;;;;;;;;;4945891;28;20226;-64
2022/01/25 02:16:05;;;;;;;20.70;18.40;;;;;;;;;;4969913;28;20197;-64
2022/01/25 02:24:00;;;;;;;20.67;18.27;;;;;;;;;;4958393;28;20313;-64
2022/01/25 02:26:26;;;;;;;21.50;19.10;;;;;;;;;;4961337;28;20840;-64
2022/01/25 02:28:52;;;;;;;21.57;18.57;;;;;;;;;;4968376;28;20603;-65
2022/01/25 02:31:18;;;;;;;21.30;18.93;;;;;;;;;;4945432;28;20815;-65
2022/01/25 02:33:44;;;;;;;22.33;18.70;;;;;;;;;;4963669;28;20372;-64
2022/01/25 02:36:11;;;;;;;24.57;18.97;;;;;;;;;;4959413;28;20198;-64
2022/01/25 02:38:37;;;;;;;22.03;19.03;;;;;;;;;;4964356;28;20194;-64
2022/01/25 02:41:03;;;;;;;23.90;18.83;;;;;;;;;;4961495;28;20189;-63
2022/01/25 02:43:29;;;;;;;22.23;19.33;;;;;;;;;;4948584;28;20232;-65
2022/01/25 02:48:47;;;;;;;22.90;18.67;;;;;;;;;;4963955;28;20556;-64
2022/01/25 02:51:13;;;;;;;20.90;18.50;;;;;;;;;;4949402;28;20201;-64
2022/01/25 02:53:39;;;;;;;21.77;18.37;;;;;;;;;;4961459;28;20260;-64
2022/01/25 02:56:05;;;;;;;24.30;18.53;;;;;;;;;;4966802;28;20317;-63
2022/01/25 02:58:31;;;;;;;24.13;19.27;;;;;;;;;;4965825;28;22280;-63
2022/01/25 03:00:57;;;;;;;21.43;19.13;;;;;;;;;;4966768;28;20870;-64
2022/01/25 03:03:23;;;;;;;22.37;18.73;;;;;;;;;;4970713;28;20397;-63
2022/01/25 03:05:49;;;;;;;22.77;19.67;;;;;;;;;;4968337;28;20632;-63
2022/01/25 03:08:15;;;;;;;23.23;19.53;;;;;;;;;;4966819;28;20189;-63
2022/01/25 03:10:42;;;;;;;21.70;18.60;;;;;;;;;;4941131;28;20573;-64
2022/01/25 03:13:14;;;;;;;22.23;18.83;;;;;;;;;;4963539;28;20221;-64
2022/01/25 03:16:03;;;;;;;24.80;19.17;;;;;;;;;;4970778;28;20678;-63
2022/01/25 03:21:02;;;;;;;22.20;18.67;;;;;;;;;;4968326;28;20245;-64
2022/01/25 03:23:30;;;;;;;22.93;20.37;;;;;;;;;;4973603;28;20205;-63
2022/01/25 03:25:56;;;;;;;21.13;18.93;;;;;;;;;;4968226;28;20193;-63
2022/01/25 03:28:22;;;;;;;21.67;18.43;;;;;;;;;;4948369;28;20240;-65
2022/01/25 03:30:48;;;;;;;23.60;19.43;;;;;;;;;;4965871;28;20221;-65
2022/01/25 03:33:14;;;;;;;25.20;19.03;;;;;;;;;;4943964;28;20244;-64
2022/01/25 03:35:40;;;;;;;21.13;18.37;;;;;;;;;;4949518;28;20198;-64
2022/01/25 03:38:06;;;;;;;22.23;19.37;;;;;;;;;;4966422;28;20942;-64
2022/01/25 03:40:32;;;;;;;21.17;18.90;;;;;;;;;;4971348;28;20194;-64
2022/01/25 03:42:59;;;;;;;21.63;19.33;;;;;;;;;;4936012;28;20969;-64
2022/01/25 03:45:30;;;;;;;21.80;19.43;;;;;;;;;;4947435;28;20213;-63
2022/01/25 03:50:44;;;;;;;22.73;19.43;;;;;;;;;;4916861;28;20396;-63
2022/01/25 03:53:10;;;;;;;21.13;18.43;;;;;;;;;;4943781;28;20221;-64
2022/01/25 03:55:36;;;;;;;22.37;19.10;;;;;;;;;;4938791;28;21499;-64
2022/01/25 03:58:02;;;;;;;21.23;18.77;;;;;;;;;;4955758;28;20938;-64
2022/01/25 04:00:28;;;;;;;24.70;19.30;;;;;;;;;;4969607;28;20621;-64
2022/01/25 04:03:00;;;;;;;22.27;19.57;;;;;;;;;;4970063;28;20221;-64
2022/01/25 04:05:47;;;;;;;20.63;18.43;;;;;;;;;;4952263;28;20190;-64
2022/01/25 04:08:13;;;;;;;22.50;19.13;;;;;;;;;;4970246;28;20960;-64
2022/01/25 04:10:39;;;;;;;22.00;18.67;;;;;;;;;;4962759;28;20244;-63
2022/01/25 04:13:05;;;;;;;21.03;18.83;;;;;;;;;;4943506;28;20228;-64
2022/01/25 04:15:31;;;;;;;20.53;18.43;;;;;;;;;;4955804;28;20198;-66
2022/01/25 04:18:01;;;;;;;21.27;18.83;;;;;;;;;;4959947;28;20213;-64
2022/01/25 04:20:34;;;;;;;21.97;18.73;;;;;;;;;;4964786;28;20887;-63
2022/01/25 04:25:44;;;;;;;21.47;18.67;;;;;;;;;;4963460;28;20219;-64
2022/01/25 04:28:10;;;;;;;23.23;19.00;;;;;;;;;;4967664;28;20210;-63
2022/01/25 04:30:36;;;;;;;20.80;18.67;;;;;;;;;;4969009;28;20194;-63
2022/01/25 04:33:17;;;;;;;21.80;17.53;;;;;;;;;;4970682;28;20220;-64
2022/01/25 04:35:56;;;;;;;20.90;17.47;;;;;;;;;;4944508;28;20182;-64
2022/01/25 04:49:24;;;;;;;20.40;18.37;;;;;;;;;;4960265;28;20283;-64
2022/01/25 04:52:02;;;;;;;22.73;19.47;;;;;;;;;;4967544;28;20201;-64
2022/01/25 04:54:55;;;;;;;20.70;18.50;;;;;;;;;;4964868;28;20213;-64
2022/01/25 04:59:59;;;;;;;21.03;18.80;;;;;;;;;;4953360;28;20229;-64
2022/01/25 05:05:01;;;;;;;20.87;18.37;;;;;;;;;;4962520;28;20894;-66
2022/01/25 05:07:44;;;;;;;22.63;18.27;;;;;;;;;;4970532;28;21579;-64
2022/01/25 05:10:11;;;;;;;21.67;18.80;;;;;;;;;;4961745;28;20251;-64
2022/01/25 05:12:45;;;;;;;22.00;18.47;;;;;;;;;;4964904;28;20284;-63
2022/01/25 05:15:22;;;;;;;23.23;18.33;;;;;;;;;;4945242;28;20200;-64
2022/01/25 05:18:06;;;;;;;21.60;19.13;;;;;;;;;;4963492;28;20204;-64
2022/01/25 05:23:17;;;;;;;24.07;19.00;;;;;;;;;;4958142;28;20184;-63
2022/01/25 05:25:43;;;;;;;26.50;19.30;;;;;;;;;;4959981;28;20189;-64
2022/01/25 05:28:09;;;;;;;21.97;18.13;;;;;;;;;;4966269;28;20280;-64
2022/01/25 05:30:35;;;;;;;24.40;18.90;;;;;;;;;;4960833;28;20683;-64
2022/01/25 05:33:01;;;;;;;23.80;19.27;;;;;;;;;;4965447;28;20242;-64
2022/01/25 05:35:27;;;;;;;20.20;18.03;;;;;;;;;;4959559;28;20194;-64
2022/01/25 05:37:53;;;;;;;24.80;19.13;;;;;;;;;;4935746;28;20221;-63
2022/01/25 05:40:28;;;;;;;23.23;20.73;;;;;;;;;;4957119;28;20276;-63
2022/01/25 05:48:23;;;;;;;24.40;20.90;;;;;;;;;;4953599;28;20834;-65
2022/01/25 05:50:49;;;;;;;21.83;19.47;;;;;;;;;;4943807;28;20643;-65
2022/01/25 05:53:15;;;;;;;24.20;20.13;;;;;;;;;;4940422;28;20232;-65
2022/01/25 05:55:41;;;;;;;25.20;20.43;;;;;;;;;;4959776;28;20603;-64
2022/01/25 05:58:07;;;;;;;23.93;20.17;;;;;;;;;;4966530;28;20233;-64
2022/01/25 06:00:33;;;;;;;24.17;19.93;;;;;;;;;;4947757;28;21054;-64
2022/01/25 06:02:59;;;;;;;25.07;19.67;;;;;;;;;;4951795;28;20243;-64
2022/01/25 06:05:25;;;;;;;23.97;20.77;;;;;;;;;;4965360;28;20338;-64
2022/01/25 06:07:51;;;;;;;24.50;20.67;;;;;;;;;;4942595;28;20190;-64
2022/01/25 06:10:17;;;;;;;23.10;20.60;;;;;;;;;;4959805;28;20199;-65
2022/01/25 06:12:44;;;;;;;23.23;19.83;;;;;;;;;;4946045;28;20240;-64
2022/01/25 06:15:11;;;;;;;24.33;20.93;;;;;;;;;;4943855;28;20202;-64
2022/01/25 06:17:36;;;;;;;42.67;26.63;;;;;;;;;;4958878;28;20200;-62
2022/01/25 06:20:03;;;;;;;68.17;34.63;;;;;;;;;;4956809;28;20197;-62
2022/01/25 06:22:28;;;;;;;56.57;31.80;;;;;;;;;;4965423;28;20629;-62
2022/01/25 06:24:54;;;;;;;58.20;31.57;;;;;;;;;;4961409;28;20403;-62
2022/01/25 06:27:20;;;;;;;53.13;29.77;;;;;;;;;;4966408;28;20290;-62
2022/01/25 06:29:47;;;;;;;53.97;30.13;;;;;;;;;;4966895;28;20243;-63
2022/01/25 06:32:14;;;;;;;52.63;30.43;;;;;;;;;;4972840;28;20269;-62
2022/01/25 06:34:40;;;;;;;48.20;29.73;;;;;;;;;;4951902;28;20228;-62
2022/01/25 06:37:06;;;;;;;51.17;30.27;;;;;;;;;;4976823;28;20663;-62
2022/01/25 06:39:32;;;;;;;52.80;30.33;;;;;;;;;;4973541;28;20662;-62
2022/01/25 06:41:57;;;;;;;46.90;27.93;;;;;;;;;;4969587;28;20194;-61
2022/01/25 06:44:23;;;;;;;49.30;29.80;;;;;;;;;;4973502;28;20209;-61
2022/01/25 06:46:49;;;;;;;44.63;28.47;;;;;;;;;;4975420;28;20194;-62
2022/01/25 06:49:16;;;;;;;45.07;28.77;;;;;;;;;;4970720;28;20283;-62
2022/01/25 06:51:42;;;;;;;39.83;27.57;;;;;;;;;;4976683;28;20198;-62
2022/01/25 06:54:08;;;;;;;45.33;28.13;;;;;;;;;;4972082;28;20232;-61
2022/01/25 06:56:34;;;;;;;45.60;28.67;;;;;;;;;;4953324;28;21307;-63
2022/01/25 06:59:00;;;;;;;43.83;27.80;;;;;;;;;;4969568;28;20770;-61
2022/01/25 07:01:26;;;;;;;42.73;27.80;;;;;;;;;;4967233;28;20182;-63
2022/01/25 07:03:52;;;;;;;39.33;27.80;;;;;;;;;;4972251;28;20441;-62
2022/01/25 07:06:18;;;;;;;41.10;28.23;;;;;;;;;;4971275;28;20426;-62
2022/01/25 07:08:45;;;;;;;42.17;28.30;;;;;;;;;;4972883;28;20749;-62
2022/01/25 07:11:11;;;;;;;39.63;26.53;;;;;;;;;;4969110;28;20324;-62
2022/01/25 07:13:37;;;;;;;39.77;27.27;;;;;;;;;;4961850;28;20311;-62
2022/01/25 07:16:03;;;;;;;41.07;27.53;;;;;;;;;;4971621;28;20193;-63
2022/01/25 07:18:29;;;;;;;40.60;26.47;;;;;;;;;;4960951;28;21201;-62
2022/01/25 07:20:55;;;;;;;39.07;27.10;;;;;;;;;;4973260;28;20234;-62
2022/01/25 07:23:21;;;;;;;44.80;27.30;;;;;;;;;;4976054;28;20351;-63
2022/01/25 07:25:47;;;;;;;38.13;26.80;;;;;;;;;;4975143;28;20193;-62
2022/01/25 07:28:13;;;;;;;37.77;25.97;;;;;;;;;;4973834;28;20225;-62
2022/01/25 07:30:39;;;;;;;36.37;26.03;;;;;;;;;;4959241;28;20693;-62
2022/01/25 07:33:07;;;;;;;34.27;25.57;;;;;;;;;;4950815;28;20218;-62
2022/01/25 07:35:33;;;;;;;33.73;26.07;;;;;;;;;;4968630;28;20335;-63
2022/01/25 07:37:59;;;;;;;38.27;26.70;;;;;;;;;;4972436;28;20289;-62
2022/01/25 07:40:25;;;;;;;33.67;24.87;;;;;;;;;;4970144;28;20791;-62
2022/01/25 07:42:51;;;;;;;35.13;25.67;;;;;;;;;;4972726;28;22189;-62
2022/01/25 07:45:17;;;;;;;33.97;25.30;;;;;;;;;;4973169;28;20255;-61
2022/01/25 07:47:43;;;;;;;37.93;26.77;;;;;;;;;;4974640;28;20968;-62
2022/01/25 07:50:09;;;;;;;41.17;27.20;;;;;;;;;;4973311;28;20800;-63
2022/01/25 07:52:35;;;;;;;33.47;24.80;;;;;;;;;;4969783;28;20651;-63
2022/01/25 07:55:01;;;;;;;37.00;26.57;;;;;;;;;;4972716;28;20194;-62
2022/01/25 07:57:27;;;;;;;33.50;24.53;;;;;;;;;;4966870;28;20201;-62
2022/01/25 07:59:53;;;;;;;35.50;24.63;;;;;;;;;;4974915;28;21242;-62
2022/01/25 08:02:20;;;;;;;33.53;24.33;;;;;;;;;;4976349;28;20239;-63
2022/01/25 08:04:46;;;;;;;32.73;23.37;;;;;;;;;;4972906;28;20239;-62
2022/01/25 08:07:12;;;;;;;35.87;24.60;;;;;;;;;;4970593;28;20757;-62
2022/01/25 08:09:37;;;;;;;33.60;24.93;;;;;;;;;;4968849;28;22146;-62
2022/01/25 08:12:04;;;;;;;35.83;25.00;;;;;;;;;;4971808;28;21137;-62
2022/01/25 08:14:29;;;;;;;32.30;23.90;;;;;;;;;;4972021;28;20216;-62
2022/01/25 08:16:55;;;;;;;33.73;23.67;;;;;;;;;;4968570;28;20197;-61
2022/01/25 08:19:21;;;;;;;31.33;23.37;;;;;;;;;;4971018;28;20193;-61
2022/01/25 08:21:47;;;;;;;32.27;22.93;;;;;;;;;;4967955;28;21084;-62
2022/01/25 08:24:14;;;;;;;31.90;24.40;;;;;;;;;;4972265;28;20209;-63
2022/01/25 08:26:40;;;;;;;31.80;23.10;;;;;;;;;;4968188;28;20284;-62
2022/01/25 08:29:06;;;;;;;33.90;24.33;;;;;;;;;;4973912;28;20227;-62
2022/01/25 08:31:32;;;;;;;30.83;22.80;;;;;;;;;;4968061;28;20432;-62
2022/01/25 08:33:58;;;;;;;34.47;23.23;;;;;;;;;;4971117;28;20839;-62
2022/01/25 08:36:24;;;;;;;35.77;24.50;;;;;;;;;;4969895;28;20305;-61
2022/01/25 08:38:50;;;;;;;32.53;22.93;;;;;;;;;;4970231;28;20208;-62
2022/01/25 08:41:17;;;;;;;30.50;22.57;;;;;;;;;;4965297;28;20568;-61
2022/01/25 08:43:43;;;;;;;33.10;23.40;;;;;;;;;;4968411;28;20453;-61
2022/01/25 08:46:08;;;;;;;32.37;23.30;;;;;;;;;;4968185;28;20198;-61
2022/01/25 08:48:34;;;;;;;31.93;23.30;;;;;;;;;;4971858;28;20267;-62
2022/01/25 08:51:01;;;;;;;37.40;23.70;;;;;;;;;;4950982;28;20726;-62
2022/01/25 08:53:27;;;;;;;36.37;23.77;;;;;;;;;;4974285;28;20214;-62
2022/01/25 08:55:53;;;;;;;29.13;21.70;;;;;;;;;;4968790;28;21317;-62
2022/01/25 08:58:19;;;;;;;34.60;22.77;;;;;;;;;;4973116;28;20803;-62
2022/01/25 09:00:45;;;;;;;33.63;23.03;;;;;;;;;;4971052;28;20196;-62
2022/01/25 09:03:11;;;;;;;30.77;22.03;;;;;;;;;;4965522;28;20312;-61
2022/01/25 09:05:37;;;;;;;29.57;21.60;;;;;;;;;;4959682;28;20193;-61
2022/01/25 09:08:05;;;;;;;35.43;22.40;;;;;;;;;;4970869;28;21128;-63
2022/01/25 09:10:31;;;;;;;32.80;22.73;;;;;;;;;;4970789;28;20312;-63
2022/01/25 09:12:57;;;;;;;34.23;23.53;;;;;;;;;;4971170;28;20218;-62
2022/01/25 09:15:23;;;;;;;33.50;22.03;;;;;;;;;;4969407;28;20315;-62
2022/01/25 09:17:49;;;;;;;34.37;22.53;;;;;;;;;;4966919;28;20281;-62
2022/01/25 09:20:15;;;;;;;29.83;21.73;;;;;;;;;;4914637;28;1067275;-63
2022/01/25 09:22:41;;;;;;;34.50;21.87;;;;;;;;;;4968072;28;20410;-62
2022/01/25 09:25:07;;;;;;;30.77;21.70;;;;;;;;;;4953240;28;20646;-62
2022/01/25 09:27:33;;;;;;;31.27;21.27;;;;;;;;;;4970308;28;20577;-62
2022/01/25 09:29:59;;;;;;;30.87;21.70;;;;;;;;;;4960902;28;20208;-61
2022/01/25 09:32:25;;;;;;;31.03;21.00;;;;;;;;;;4966540;28;20288;-61
2022/01/25 09:34:51;;;;;;;30.33;21.50;;;;;;;;;;4965337;28;20247;-62
2022/01/25 09:37:17;;;;;;;32.63;21.90;;;;;;;;;;4967991;28;20307;-63
2022/01/25 09:39:43;;;;;;;29.60;21.10;;;;;;;;;;4967856;28;20782;-61
2022/01/25 09:42:10;;;;;;;31.83;21.27;;;;;;;;;;4967515;28;20872;-62
2022/01/25 09:44:36;;;;;;;32.20;22.77;;;;;;;;;;4952023;28;20201;-62
2022/01/25 09:47:03;;;;;;;32.20;21.90;;;;;;;;;;4970309;28;20198;-62
2022/01/25 09:49:28;;;;;;;31.93;21.90;;;;;;;;;;4968764;28;20200;-62
2022/01/25 09:51:55;;;;;;;32.40;22.00;;;;;;;;;;4972798;28;20198;-62
2022/01/25 09:54:21;;;;;;;31.87;21.53;;;;;;;;;;4973255;28;20985;-62
2022/01/25 09:56:47;;;;;;;32.33;21.23;;;;;;;;;;4967260;28;20250;-61
2022/01/25 09:59:13;;;;;;;29.50;21.23;;;;;;;;;;4971672;28;20201;-61
2022/01/25 10:01:39;;;;;;;30.90;22.20;;;;;;;;;;4969980;28;20313;-61
2022/01/25 10:04:13;;;;;;;29.33;21.43;;;;;;;;;;4939331;28;20264;-61
2022/01/25 10:06:39;;;;;;;31.40;21.17;;;;;;;;;;4945768;28;20927;-63
2022/01/25 10:09:05;;;;;;;31.13;22.07;;;;;;;;;;4936503;28;20201;-62
2022/01/25 10:11:31;;;;;;;31.93;21.20;;;;;;;;;;4968888;28;20288;-62
2022/01/25 10:13:58;;;;;;;31.63;21.80;;;;;;;;;;4967809;28;20213;-61
2022/01/25 10:16:31;;;;;;;30.00;21.80;;;;;;;;;;4970287;28;20649;-61
2022/01/25 10:18:58;;;;;;;31.30;20.83;;;;;;;;;;4966524;28;20412;-61
2022/01/25 10:21:31;;;;;;;33.23;21.87;;;;;;;;;;4968438;28;20241;-62
2022/01/25 10:24:10;;;;;;;31.33;22.40;;;;;;;;;;4964174;28;20584;-62
2022/01/25 10:26:36;;;;;;;31.97;22.40;;;;;;;;;;4971333;28;20539;-62
2022/01/25 10:29:03;;;;;;;31.03;21.00;;;;;;;;;;4965219;28;20201;-62
2022/01/25 10:31:33;;;;;;;29.00;20.50;;;;;;;;;;4968513;28;20413;-61
2022/01/25 10:33:59;;;;;;;29.20;21.00;;;;;;;;;;4969513;28;20298;-62
2022/01/25 10:36:25;;;;;;;30.70;21.30;;;;;;;;;;4944364;28;20194;-61
2022/01/25 10:38:54;;;;;;;31.57;21.47;;;;;;;;;;4963870;28;20552;-62
2022/01/25 10:41:22;;;;;;;30.90;21.10;;;;;;;;;;4966604;28;20682;-61
2022/01/25 10:43:48;;;;;;;33.60;22.67;;;;;;;;;;4966834;28;20198;-62
2022/01/25 10:46:19;;;;;;;32.77;22.60;;;;;;;;;;4949895;28;20228;-61
2022/01/25 10:48:52;;;;;;;33.13;23.10;;;;;;;;;;4968410;28;20208;-62
2022/01/25 10:51:25;;;;;;;31.57;22.50;;;;;;;;;;4966866;28;21946;-61
2022/01/25 10:54:02;;;;;;;32.87;23.07;;;;;;;;;;4947388;28;21275;-61
2022/01/25 10:56:33;;;;;;;32.43;22.20;;;;;;;;;;4966271;28;20212;-61
2022/01/25 10:59:00;;;;;;;34.03;21.77;;;;;;;;;;4969960;28;20195;-62
2022/01/25 11:01:30;;;;;;;34.03;22.13;;;;;;;;;;4963716;28;20201;-61
2022/01/25 11:04:02;;;;;;;33.03;22.40;;;;;;;;;;4962426;28;21459;-61
2022/01/25 11:06:28;;;;;;;28.10;21.90;;;;;;;;;;4965191;28;20197;-61
2022/01/25 11:08:59;;;;;;;34.60;22.03;;;;;;;;;;4967553;28;20303;-62
2022/01/25 11:11:26;;;;;;;30.97;22.47;;;;;;;;;;4966956;28;20910;-62
2022/01/25 11:13:54;;;;;;;28.93;21.80;;;;;;;;;;4960943;28;20250;-62
2022/01/25 11:16:19;;;;;;;32.00;21.57;;;;;;;;;;4970160;28;20714;-61
2022/01/25 11:18:45;;;;;;;33.27;22.80;;;;;;;;;;4974793;28;20194;-62
2022/01/25 11:21:12;;;;;;;30.30;22.83;;;;;;;;;;4970877;28;21198;-60
2022/01/25 11:23:38;;;;;;;29.00;21.90;;;;;;;;;;4972118;28;22277;-61
2022/01/25 11:26:05;;;;;;;30.10;22.63;;;;;;;;;;4969780;28;20197;-61
2022/01/25 11:28:31;;;;;;;28.60;21.87;;;;;;;;;;4959037;28;20232;-62
2022/01/25 11:30:58;;;;;;;31.27;22.63;;;;;;;;;;4970220;28;23543;-62
2022/01/25 11:33:24;;;;;;;31.80;23.10;;;;;;;;;;4940344;28;20225;-62
2022/01/25 11:35:50;;;;;;;29.23;21.63;;;;;;;;;;4958495;28;20217;-61
2022/01/25 11:38:16;;;;;;;33.83;23.50;;;;;;;;;;4945328;28;20344;-61
2022/01/25 11:40:46;;;;;;;29.93;23.07;;;;;;;;;;4934351;28;20220;-62
2022/01/25 11:43:12;;;;;;;29.20;22.23;;;;;;;;;;4938356;28;20681;-61
2022/01/25 11:45:49;;;;;;;30.17;22.83;;;;;;;;;;4952075;28;21443;-61
2022/01/25 11:48:14;;;;;;;29.50;21.23;;;;;;;;;;4949936;28;20193;-61
2022/01/25 11:50:41;;;;;;;32.40;21.20;;;;;;;;;;4952413;28;20202;-61
2022/01/25 11:53:12;;;;;;;30.13;21.97;;;;;;;;;;4959471;28;20217;-61
2022/01/25 11:55:41;;;;;;;30.90;22.00;;;;;;;;;;4951530;28;20272;-62
2022/01/25 11:58:08;;;;;;;32.17;22.53;;;;;;;;;;4954312;28;20284;-62
2022/01/25 12:00:37;;;;;;;34.17;22.27;;;;;;;;;;4952192;28;20458;-63
2022/01/25 12:03:04;;;;;;;33.23;22.50;;;;;;;;;;4957358;28;20201;-62
2022/01/25 12:05:33;;;;;;;30.43;22.13;;;;;;;;;;4957752;28;20897;-61
2022/01/25 12:08:08;;;;;;;29.40;21.17;;;;;;;;;;4956303;28;20208;-61
2022/01/25 12:10:40;;;;;;;29.70;21.00;;;;;;;;;;4959872;28;20353;-62
2022/01/25 12:13:13;;;;;;;31.60;22.23;;;;;;;;;;4939296;28;20209;-62
2022/01/25 12:15:39;;;;;;;30.70;21.77;;;;;;;;;;4961551;28;20666;-62
2022/01/25 12:18:08;;;;;;;29.27;21.97;;;;;;;;;;4958663;28;20503;-62
2022/01/25 12:20:34;;;;;;;29.43;21.80;;;;;;;;;;4960759;28;20229;-62
2022/01/25 12:23:08;;;;;;;33.47;23.30;;;;;;;;;;4945932;28;20267;-63
2022/01/25 12:25:47;;;;;;;30.20;21.77;;;;;;;;;;4931113;28;20193;-62
2022/01/25 12:28:32;;;;;;;32.33;22.70;;;;;;;;;;4963815;28;20193;-61
2022/01/25 12:31:02;;;;;;;34.00;22.10;;;;;;;;;;4956830;28;20755;-62
2022/01/25 12:33:33;;;;;;;32.07;21.77;;;;;;;;;;4945546;28;20804;-63
2022/01/25 12:36:03;;;;;;;33.87;22.33;;;;;;;;;;4950746;28;20201;-62
2022/01/25 12:38:32;;;;;;;32.13;22.53;;;;;;;;;;4953992;28;20675;-62
2022/01/25 12:40:58;;;;;;;31.93;22.53;;;;;;;;;;4955165;28;20198;-62
2022/01/25 12:43:28;;;;;;;34.27;22.00;;;;;;;;;;4950758;28;20819;-63
2022/01/25 12:45:57;;;;;;;32.10;22.83;;;;;;;;;;4949159;28;20202;-63
2022/01/25 12:48:28;;;;;;;32.20;23.03;;;;;;;;;;4958908;28;20198;-63
2022/01/25 12:50:56;;;;;;;35.40;23.10;;;;;;;;;;4953940;28;20197;-63
2022/01/25 12:53:26;;;;;;;33.60;22.83;;;;;;;;;;4950644;28;20705;-63
2022/01/25 12:55:53;;;;;;;31.87;21.87;;;;;;;;;;4938739;28;20578;-63
2022/01/25 12:58:20;;;;;;;32.13;22.23;;;;;;;;;;4948464;28;20296;-62
2022/01/25 13:00:47;;;;;;;29.60;21.63;;;;;;;;;;4945410;28;20201;-62
2022/01/25 13:03:21;;;;;;;30.10;21.63;;;;;;;;;;4954658;28;20675;-62
2022/01/25 13:06:19;;;;;;;29.17;21.90;;;;;;;;;;4950624;28;20212;-63
2022/01/25 13:09:11;;;;;;;33.17;21.87;;;;;;;;;;4895662;28;20671;-62
2022/01/25 13:11:58;;;;;;;30.73;21.57;;;;;;;;;;4958372;28;20205;-63
2022/01/25 13:17:07;;;;;;;33.63;22.20;;;;;;;;;;4932787;28;20259;-61
2022/01/25 13:19:40;;;;;;;28.93;21.47;;;;;;;;;;4949311;28;20283;-66
2022/01/25 13:22:09;;;;;;;31.40;21.47;;;;;;;;;;4951516;28;20225;-63
2022/01/25 13:24:40;;;;;;;29.83;20.00;;;;;;;;;;4950218;28;20714;-63
2022/01/25 13:27:12;;;;;;;30.80;20.33;;;;;;;;;;4952150;28;20757;-63
2022/01/25 13:32:27;;;;;;;32.80;23.23;;;;;;;;;;4965393;28;20200;-63
2022/01/25 13:35:06;;;;;;;37.37;23.47;;;;;;;;;;4957254;28;20214;-62
2022/01/25 13:37:32;;;;;;;31.60;22.63;;;;;;;;;;4953886;28;20700;-62
2022/01/25 13:39:59;;;;;;;35.40;23.03;;;;;;;;;;4954125;28;20197;-62
2022/01/25 13:42:34;;;;;;;37.40;23.83;;;;;;;;;;4961045;28;20204;-62
2022/01/25 13:47:59;;;;;;;36.77;23.80;;;;;;;;;;4963810;28;20197;-63
2022/01/25 13:50:26;;;;;;;33.60;22.80;;;;;;;;;;4964134;28;20209;-63
2022/01/25 13:52:52;;;;;;;36.43;24.23;;;;;;;;;;4962798;28;20221;-62
2022/01/25 13:55:18;;;;;;;32.87;22.93;;;;;;;;;;4959437;28;20981;-63
2022/01/25 13:57:44;;;;;;;35.23;24.67;;;;;;;;;;4963853;28;21040;-63
2022/01/25 14:00:11;;;;;;;35.13;24.33;;;;;;;;;;4965137;28;20312;-63
2022/01/25 14:02:37;;;;;;;34.83;22.33;;;;;;;;;;4966685;28;20683;-63
2022/01/25 14:05:04;;;;;;;31.27;23.07;;;;;;;;;;4962127;28;20802;-63
2022/01/25 14:07:36;;;;;;;37.27;22.97;;;;;;;;;;4967407;28;20201;-63
2022/01/25 14:10:11;;;;;;;39.27;23.73;;;;;;;;;;4961777;28;20272;-63
2022/01/25 14:23:44;;;;;;;35.00;23.77;;;;;;;;;;4957282;28;20211;-64
2022/01/25 14:26:11;;;;;;;35.50;24.20;;;;;;;;;;4955420;28;20880;-63
2022/01/25 14:28:46;;;;;;;35.17;23.93;;;;;;;;;;4949875;28;21359;-63
2022/01/25 14:31:22;;;;;;;34.70;23.90;;;;;;;;;;4949328;28;20646;-63
2022/01/25 14:33:54;;;;;;;38.47;25.03;;;;;;;;;;4950549;28;20649;-63
2022/01/25 14:36:20;;;;;;;37.00;24.50;;;;;;;;;;4950501;28;20200;-62
2022/01/25 14:38:47;;;;;;;37.00;23.77;;;;;;;;;;4943990;28;20779;-63
2022/01/25 14:41:16;;;;;;;38.00;24.37;;;;;;;;;;4953605;28;21132;-62
2022/01/25 14:43:50;;;;;;;38.20;25.30;;;;;;;;;;4949584;28;20312;-62
2022/01/25 14:46:27;;;;;;;40.47;25.23;;;;;;;;;;4938242;28;20271;-63
2022/01/25 14:49:06;;;;;;;39.53;24.83;;;;;;;;;;4949855;28;20201;-66
2022/01/25 14:51:36;;;;;;;38.33;25.77;;;;;;;;;;4961906;28;20617;-63
2022/01/25 14:54:02;;;;;;;40.40;24.67;;;;;;;;;;4938681;28;20226;-62
2022/01/25 14:56:32;;;;;;;36.90;23.97;;;;;;;;;;4965851;28;20285;-62
2022/01/25 15:01:32;;;;;;;36.57;24.83;;;;;;;;;;4949778;28;24722;-64
2022/01/25 15:03:58;;;;;;;39.97;25.93;;;;;;;;;;4963243;28;20210;-62
2022/01/25 15:06:24;;;;;;;42.10;25.67;;;;;;;;;;4972958;28;20198;-63
2022/01/25 15:08:51;;;;;;;42.30;24.33;;;;;;;;;;4968842;28;20198;-63
2022/01/25 15:11:17;;;;;;;37.47;24.13;;;;;;;;;;4970260;28;20197;-63
2022/01/25 15:13:43;;;;;;;38.97;24.53;;;;;;;;;;4964891;28;20224;-63
2022/01/25 15:16:09;;;;;;;35.70;24.23;;;;;;;;;;4968782;28;21256;-63
2022/01/25 15:18:38;;;;;;;37.30;24.33;;;;;;;;;;4966389;28;20193;-63
2022/01/25 15:21:04;;;;;;;46.60;26.20;;;;;;;;;;4952132;28;20388;-63
2022/01/25 15:23:32;;;;;;;35.60;23.97;;;;;;;;;;4954280;28;20833;-64
2022/01/25 15:26:00;;;;;;;37.53;24.40;;;;;;;;;;4954649;28;20235;-63
2022/01/25 15:28:36;;;;;;;39.83;26.10;;;;;;;;;;4947325;28;20233;-62
2022/01/25 15:31:02;;;;;;;35.30;24.33;;;;;;;;;;4948843;28;20678;-63
2022/01/25 15:33:28;;;;;;;38.47;24.80;;;;;;;;;;4948068;28;20709;-62
2022/01/25 15:35:54;;;;;;;39.00;25.60;;;;;;;;;;4950894;28;20193;-62
2022/01/25 15:38:20;;;;;;;42.27;25.93;;;;;;;;;;4953583;28;20232;-62
2022/01/25 15:40:46;;;;;;;39.80;26.33;;;;;;;;;;4954774;28;20205;-63
2022/01/25 15:43:12;;;;;;;39.77;24.77;;;;;;;;;;4949139;28;20205;-62
2022/01/25 15:46:01;;;;;;;34.50;24.70;;;;;;;;;;4952484;28;21196;-64
2022/01/25 15:48:27;;;;;;;39.93;25.47;;;;;;;;;;4950318;28;20570;-62
2022/01/25 15:50:52;;;;;;;41.57;25.90;;;;;;;;;;4951188;28;20197;-64
2022/01/25 15:53:18;;;;;;;38.63;25.33;;;;;;;;;;4951217;28;20900;-63
2022/01/25 15:55:44;;;;;;;40.90;25.80;;;;;;;;;;4956471;28;20387;-63
2022/01/25 15:58:10;;;;;;;37.30;24.20;;;;;;;;;;4946158;28;20689;-63
2022/01/25 16:00:37;;;;;;;41.03;25.93;;;;;;;;;;4949909;28;20721;-64
2022/01/25 16:03:03;;;;;;;44.47;25.17;;;;;;;;;;4953144;28;20248;-64
2022/01/25 16:05:29;;;;;;;41.33;25.33;;;;;;;;;;4951146;28;20386;-64
2022/01/25 16:07:55;;;;;;;35.37;24.87;;;;;;;;;;4949633;28;20201;-62
2022/01/25 16:10:22;;;;;;;40.17;26.37;;;;;;;;;;4950776;28;20222;-63
2022/01/25 16:12:48;;;;;;;41.73;25.83;;;;;;;;;;4956413;28;20198;-62
2022/01/25 16:15:14;;;;;;;37.73;24.50;;;;;;;;;;4963563;28;20229;-62
2022/01/25 16:17:40;;;;;;;37.97;24.20;;;;;;;;;;4963559;28;20649;-63
2022/01/25 16:20:07;;;;;;;40.17;25.83;;;;;;;;;;4967921;28;20194;-64
2022/01/25 16:22:33;;;;;;;37.70;24.10;;;;;;;;;;4946777;28;20835;-63
2022/01/25 16:24:59;;;;;;;41.30;25.73;;;;;;;;;;4972232;28;20323;-62
2022/01/25 16:27:25;;;;;;;37.83;24.53;;;;;;;;;;4967245;28;20746;-63
2022/01/25 16:29:51;;;;;;;40.63;25.77;;;;;;;;;;4955208;28;20205;-63
2022/01/25 16:32:20;;;;;;;36.50;24.47;;;;;;;;;;4953587;28;20306;-63
2022/01/25 16:34:46;;;;;;;37.13;24.57;;;;;;;;;;4942383;28;21013;-63
2022/01/25 16:37:13;;;;;;;39.53;24.10;;;;;;;;;;4964223;28;20404;-62
2022/01/25 16:39:39;;;;;;;38.83;25.67;;;;;;;;;;4959522;28;20197;-62
2022/01/25 16:42:05;;;;;;;36.87;24.30;;;;;;;;;;4957145;28;20896;-63
2022/01/25 16:44:31;;;;;;;36.90;24.30;;;;;;;;;;4964088;28;20201;-63
2022/01/25 16:46:57;;;;;;;35.77;23.40;;;;;;;;;;4963665;28;20205;-63
2022/01/25 16:49:23;;;;;;;39.27;24.63;;;;;;;;;;4963151;28;20806;-63
2022/01/25 16:51:49;;;;;;;37.33;24.87;;;;;;;;;;4936706;28;20202;-63
2022/01/25 16:54:15;;;;;;;39.37;24.93;;;;;;;;;;4970618;28;20233;-63
2022/01/25 16:56:44;;;;;;;38.97;25.03;;;;;;;;;;4969342;28;20237;-63
2022/01/25 16:59:10;;;;;;;39.67;25.23;;;;;;;;;;4963882;28;20748;-63
2022/01/25 17:01:36;;;;;;;38.33;25.00;;;;;;;;;;4959165;28;20189;-63